createdAt,value
2019-03-24T00:02:09.553Z,16.40
2019-03-24T00:04:42.618Z,13.70
2019-03-24T00:07:13.507Z,16.97
2019-03-24T00:09:44.427Z,19.60
2019-03-24T00:12:15.407Z,11.27
2019-03-24T00:14:46.248Z,23.53
2019-03-24T00:17:17.115Z,19.73
2019-03-24T00:19:47.959Z,14.40
2019-03-24T00:22:18.943Z,13.97
2019-03-24T00:24:49.760Z,19.00
2019-03-24T00:27:20.679Z,16.67
2019-03-24T00:29:56.037Z,19.00
2019-03-24T00:32:26.945Z,11.90
2019-03-24T00:34:58.197Z,18.40
2019-03-24T00:37:32.042Z,17.63
2019-03-24T00:40:03.168Z,15.30
2019-03-24T00:42:34.068Z,18.30
2019-03-24T00:45:05.992Z,15.67
2019-03-24T00:47:36.871Z,14.30
2019-03-24T00:50:08.377Z,17.33
2019-03-24T00:52:39.256Z,20.80
2019-03-24T00:55:11.035Z,13.93
2019-03-24T00:57:41.950Z,11.83
2019-03-24T01:00:14.142Z,14.40
2019-03-24T01:02:45.094Z,16.63
2019-03-24T01:05:17.637Z,11.47
2019-03-24T01:07:48.598Z,13.47
2019-03-24T01:10:19.678Z,18.77
2019-03-24T01:12:52.852Z,14.63
2019-03-24T01:15:23.772Z,14.13
2019-03-24T01:17:57.438Z,15.03
2019-03-24T01:20:28.642Z,17.20
2019-03-24T01:23:02.336Z,19.13
2019-03-24T01:25:33.271Z,16.77
2019-03-24T01:28:04.131Z,11.27
2019-03-24T01:30:35.032Z,17.63
2019-03-24T01:33:07.379Z,22.53
2019-03-24T01:35:38.223Z,15.03
2019-03-24T01:38:09.629Z,13.67
2019-03-24T01:40:40.489Z,14.77
2019-03-24T01:43:11.388Z,17.97
2019-03-24T01:45:42.305Z,10.53
2019-03-24T01:48:13.611Z,18.87
2019-03-24T01:50:44.589Z,15.40
2019-03-24T01:53:15.405Z,15.63
2019-03-24T01:55:46.259Z,12.40
2019-03-24T01:58:17.207Z,14.33
2019-03-24T02:00:48.168Z,10.57
2019-03-24T02:03:19.339Z,15.10
2019-03-24T02:05:50.316Z,12.83
2019-03-24T02:08:21.181Z,13.03
2019-03-24T02:10:52.078Z,10.00
2019-03-24T02:13:23.505Z,11.77
2019-03-24T02:15:54.383Z,12.47
2019-03-24T02:18:25.292Z,14.87
2019-03-24T02:20:56.260Z,17.63
2019-03-24T02:23:27.424Z,15.00
2019-03-24T02:25:58.678Z,10.13
2019-03-24T02:28:32.747Z,23.27
2019-03-24T02:31:03.735Z,15.30
2019-03-24T02:33:34.636Z,12.30
2019-03-24T02:36:05.626Z,16.53
2019-03-24T02:38:36.724Z,15.70
2019-03-24T02:41:08.233Z,12.50
2019-03-24T02:43:39.540Z,16.40
2019-03-24T02:46:23.592Z,17.47
2019-03-24T02:48:42.923Z,10.97
2019-03-24T02:51:14.050Z,17.77
2019-03-24T02:53:44.875Z,18.43
2019-03-24T02:56:16.067Z,18.90
2019-03-24T02:58:47.526Z,18.67
2019-03-24T03:01:18.610Z,17.93
2019-03-24T03:03:49.577Z,16.73
2019-03-24T03:06:20.564Z,13.93
2019-03-24T03:08:51.760Z,19.83
2019-03-24T03:11:24.050Z,21.73
2019-03-24T03:13:55.381Z,19.07
2019-03-24T03:16:37.974Z,14.80
2019-03-24T03:18:59.241Z,14.03
2019-03-24T03:21:30.254Z,12.40
2019-03-24T03:24:01.311Z,17.43
2019-03-24T03:26:35.180Z,15.77
2019-03-24T03:29:10.671Z,13.37
2019-03-24T03:31:41.964Z,15.30
2019-03-24T03:34:13.001Z,14.37
2019-03-24T03:36:44.066Z,20.07
2019-03-24T03:39:15.214Z,12.43
2019-03-24T03:41:46.214Z,18.03
2019-03-24T03:44:17.369Z,12.57
2019-03-24T03:46:53.025Z,17.57
2019-03-24T03:49:21.301Z,13.70
2019-03-24T03:51:52.147Z,14.57
2019-03-24T03:54:23.029Z,15.90
2019-03-24T03:56:54.027Z,15.73
2019-03-24T03:59:25.464Z,13.83
2019-03-24T04:01:57.982Z,15.00
2019-03-24T04:04:29.236Z,12.73
2019-03-24T04:07:00.381Z,18.30
2019-03-24T04:09:31.576Z,20.00
2019-03-24T04:12:04.197Z,19.53
2019-03-24T04:14:35.175Z,20.60
2019-03-24T04:17:08.009Z,16.83
2019-03-24T04:19:39.444Z,21.50
2019-03-24T04:22:11.185Z,32.57
2019-03-24T04:24:42.282Z,27.60
2019-03-24T04:27:14.216Z,32.23
2019-03-24T04:29:45.487Z,37.20
2019-03-24T04:32:16.590Z,23.33
2019-03-24T04:34:47.762Z,22.53
2019-03-24T04:37:18.976Z,21.77
2019-03-24T04:39:50.164Z,20.53
2019-03-24T04:42:21.263Z,23.47
2019-03-24T04:44:53.264Z,28.97
2019-03-24T04:47:24.664Z,23.10
2019-03-24T04:49:55.632Z,20.20
2019-03-24T04:52:27.072Z,30.30
2019-03-24T04:54:58.340Z,19.67
2019-03-24T04:57:29.416Z,22.73
2019-03-24T05:00:00.467Z,19.03
2019-03-24T05:02:31.289Z,22.87
2019-03-24T05:05:02.725Z,18.63
2019-03-24T05:07:33.645Z,20.80
2019-03-24T05:10:04.935Z,18.47
2019-03-24T05:12:35.704Z,30.33
2019-03-24T05:15:06.685Z,20.73
2019-03-24T05:17:37.667Z,14.33
2019-03-24T05:20:09.059Z,19.07
2019-03-24T05:22:39.963Z,21.23
2019-03-24T05:25:10.791Z,14.60
2019-03-24T05:27:41.787Z,13.77
2019-03-24T05:30:12.893Z,9.23
2019-03-24T05:32:45.588Z,14.63
2019-03-24T05:35:16.569Z,13.10
2019-03-24T05:37:47.792Z,18.63
2019-03-24T05:40:18.807Z,15.67
2019-03-24T05:42:50.235Z,14.00
2019-03-24T05:45:21.846Z,12.93
2019-03-24T05:47:53.202Z,11.67
2019-03-24T05:50:24.596Z,20.67
2019-03-24T05:52:55.803Z,12.53
2019-03-24T05:55:27.035Z,25.40
2019-03-24T05:57:58.307Z,15.00
2019-03-24T06:00:29.574Z,15.33
2019-03-24T06:03:01.927Z,11.30
2019-03-24T06:05:36.385Z,13.40
2019-03-24T06:08:07.800Z,11.43
2019-03-24T06:10:39.292Z,11.37
2019-03-24T06:13:10.531Z,8.30
2019-03-24T06:15:41.657Z,12.33
2019-03-24T06:18:13.256Z,7.77
2019-03-24T06:20:45.315Z,7.53
2019-03-24T06:23:16.669Z,8.13
2019-03-24T06:25:48.165Z,18.40
2019-03-24T06:28:19.391Z,31.40
2019-03-24T06:30:51.006Z,54.23
2019-03-24T06:33:22.749Z,11.30
2019-03-24T06:35:55.410Z,8.83
2019-03-24T06:38:26.809Z,19.37
2019-03-24T06:40:58.048Z,19.63
2019-03-24T06:43:30.153Z,11.13
2019-03-24T06:46:04.230Z,14.77
2019-03-24T06:48:35.438Z,30.07
2019-03-24T06:51:07.961Z,35.00
2019-03-24T06:53:39.100Z,66.20
2019-03-24T06:56:11.753Z,19.97
2019-03-24T06:58:42.791Z,64.47
2019-03-24T07:01:14.134Z,23.50
2019-03-24T07:03:45.265Z,21.03
2019-03-24T07:06:16.762Z,29.83
2019-03-24T07:08:47.921Z,11.43
2019-03-24T07:11:20.628Z,30.43
2019-03-24T07:13:53.930Z,30.00
2019-03-24T07:16:25.550Z,32.37
2019-03-24T07:18:56.927Z,26.33
2019-03-24T07:21:28.544Z,37.77
2019-03-24T07:24:00.603Z,24.03
2019-03-24T07:26:32.627Z,81.63
2019-03-24T07:29:04.425Z,26.90
2019-03-24T07:31:36.248Z,25.27
2019-03-24T07:34:07.516Z,29.40
2019-03-24T07:36:39.631Z,25.17
2019-03-24T07:39:12.744Z,36.67
2019-03-24T07:41:46.112Z,27.77
2019-03-24T07:44:17.869Z,27.23
2019-03-24T07:46:49.835Z,16.37
2019-03-24T07:49:21.736Z,21.23
2019-03-24T07:51:55.308Z,22.60
2019-03-24T07:54:27.112Z,36.90
2019-03-24T07:56:58.807Z,21.20
2019-03-24T07:59:30.347Z,22.63
2019-03-24T08:02:01.680Z,24.93
2019-03-24T08:04:33.127Z,21.27
2019-03-24T08:07:05.316Z,28.53
2019-03-24T08:09:37.310Z,20.30
2019-03-24T08:12:10.439Z,21.97
2019-03-24T08:14:43.443Z,23.97
2019-03-24T08:17:14.837Z,19.90
2019-03-24T08:19:46.290Z,27.13
2019-03-24T08:22:17.801Z,23.40
2019-03-24T08:24:49.494Z,25.93
2019-03-24T08:27:21.286Z,25.13
2019-03-24T08:29:54.643Z,24.33
2019-03-24T08:32:26.335Z,25.73
2019-03-24T08:34:58.013Z,19.67
2019-03-24T08:37:30.311Z,21.77
2019-03-24T08:40:02.357Z,21.00
2019-03-24T08:42:34.055Z,22.87
2019-03-24T08:45:06.245Z,18.83
2019-03-24T08:47:38.349Z,19.10
2019-03-24T08:50:10.119Z,25.10
2019-03-24T08:52:42.198Z,21.50
2019-03-24T08:55:14.483Z,22.53
2019-03-24T08:57:45.865Z,18.20
2019-03-24T09:00:17.240Z,27.33
2019-03-24T09:02:48.752Z,21.93
2019-03-24T09:05:20.652Z,27.57
2019-03-24T09:07:51.971Z,23.10
2019-03-24T09:10:23.614Z,28.03
2019-03-24T09:12:55.910Z,22.77
2019-03-24T09:15:30.862Z,23.50
2019-03-24T09:18:02.244Z,22.93
2019-03-24T09:20:41.622Z,22.60
2019-03-24T09:23:07.114Z,21.30
2019-03-24T09:25:38.811Z,23.43
2019-03-24T09:28:09.960Z,22.70
2019-03-24T09:30:42.952Z,26.53
2019-03-24T09:33:14.624Z,24.80
2019-03-24T09:35:52.021Z,20.80
2019-03-24T09:38:23.389Z,24.83
2019-03-24T09:40:54.858Z,21.43
2019-03-24T09:43:26.097Z,20.20
2019-03-24T09:45:57.301Z,23.10
2019-03-24T09:48:28.493Z,22.57
2019-03-24T09:50:59.828Z,18.47
2019-03-24T09:53:30.929Z,26.13
2019-03-24T09:56:02.304Z,17.30
2019-03-24T09:58:33.767Z,20.00
2019-03-24T10:01:05.173Z,20.57
2019-03-24T10:03:36.689Z,25.77
2019-03-24T10:06:07.885Z,18.33
2019-03-24T10:08:47.085Z,23.90
2019-03-24T10:11:12.323Z,19.93
2019-03-24T10:13:43.805Z,20.17
2019-03-24T10:16:15.324Z,21.37
2019-03-24T10:18:46.669Z,20.57
2019-03-24T10:21:17.983Z,21.57
2019-03-24T10:23:49.269Z,21.57
2019-03-24T10:26:20.903Z,18.87
2019-03-24T10:28:52.200Z,23.07
2019-03-24T10:31:23.890Z,21.23
2019-03-24T10:33:55.216Z,17.33
2019-03-24T10:36:27.195Z,19.87
2019-03-24T10:39:00.080Z,19.00
2019-03-24T10:41:31.484Z,18.13
2019-03-24T10:44:02.684Z,17.73
2019-03-24T10:46:34.032Z,16.07
2019-03-24T10:49:05.422Z,22.20
2019-03-24T10:51:36.779Z,17.73
2019-03-24T10:54:07.942Z,17.13
2019-03-24T10:56:39.352Z,20.47
2019-03-24T10:59:10.486Z,23.17
2019-03-24T11:01:41.756Z,20.87
2019-03-24T11:04:13.117Z,18.60
2019-03-24T11:06:44.305Z,20.37
2019-03-24T11:09:15.977Z,22.87
2019-03-24T11:11:47.335Z,23.03
2019-03-24T11:14:19.821Z,17.53
2019-03-24T11:16:53.881Z,21.03
2019-03-24T11:19:35.004Z,19.27
2019-03-24T11:21:58.144Z,23.07
2019-03-24T11:24:29.570Z,23.30
2019-03-24T11:27:01.070Z,19.13
2019-03-24T11:29:32.294Z,25.57
2019-03-24T11:32:03.616Z,21.77
2019-03-24T11:34:34.848Z,23.33
2019-03-24T11:37:06.345Z,27.50
2019-03-24T11:39:37.689Z,22.97
2019-03-24T11:42:09.011Z,17.90
2019-03-24T11:44:40.297Z,22.50
2019-03-24T11:47:14.856Z,30.43
2019-03-24T11:49:49.029Z,27.20
2019-03-24T11:52:19.728Z,27.93
2019-03-24T11:54:51.564Z,25.67
2019-03-24T11:57:23.197Z,23.30
2019-03-24T11:59:54.737Z,19.23
2019-03-24T12:02:27.546Z,23.03
2019-03-24T12:04:59.030Z,21.80
2019-03-24T12:07:30.196Z,25.43
2019-03-24T12:10:02.915Z,20.20
2019-03-24T12:12:34.268Z,21.77
2019-03-24T12:15:06.122Z,25.73
2019-03-24T12:17:37.677Z,16.77
2019-03-24T12:20:10.935Z,14.90
2019-03-24T12:22:43.917Z,15.53
2019-03-24T12:25:15.022Z,18.47
2019-03-24T12:27:46.331Z,14.00
2019-03-24T12:30:17.647Z,20.53
2019-03-24T12:32:49.091Z,18.23
2019-03-24T12:35:21.835Z,22.47
2019-03-24T12:37:53.259Z,21.77
2019-03-24T12:40:24.639Z,23.57
2019-03-24T12:42:56.137Z,21.57
2019-03-24T12:45:27.490Z,19.30
2019-03-24T12:47:59.305Z,22.00
2019-03-24T12:50:31.934Z,20.50
2019-03-24T12:53:03.511Z,16.93
2019-03-24T12:55:34.869Z,13.97
2019-03-24T12:58:06.114Z,14.97
2019-03-24T13:00:39.280Z,13.53
2019-03-24T13:03:10.626Z,14.73
2019-03-24T13:05:42.058Z,12.40
2019-03-24T13:08:15.082Z,16.00
2019-03-24T13:10:47.666Z,12.60
2019-03-24T13:13:19.296Z,10.47
2019-03-24T13:15:53.508Z,12.93
2019-03-24T13:18:24.965Z,13.17
2019-03-24T13:20:56.324Z,13.40
2019-03-24T13:23:32.199Z,11.97
2019-03-24T13:26:03.664Z,16.13
2019-03-24T13:28:35.073Z,13.23
2019-03-24T13:31:06.693Z,7.87
2019-03-24T13:33:38.120Z,8.73
2019-03-24T13:36:12.407Z,7.40
2019-03-24T13:38:44.511Z,12.33
2019-03-24T13:41:15.797Z,9.47
2019-03-24T13:43:47.121Z,7.17
2019-03-24T13:46:18.483Z,6.67
2019-03-24T13:48:55.497Z,4.80
2019-03-24T13:51:26.911Z,9.83
2019-03-24T13:53:58.142Z,7.60
2019-03-24T13:56:29.781Z,10.77
2019-03-24T13:59:02.504Z,8.30
2019-03-24T14:01:33.794Z,9.10
2019-03-24T14:04:04.999Z,6.03
2019-03-24T14:06:36.394Z,4.20
2019-03-24T14:09:11.991Z,5.63
2019-03-24T14:11:43.852Z,5.43
2019-03-24T14:14:15.028Z,4.03
2019-03-24T14:16:46.683Z,5.47
2019-03-24T14:19:18.137Z,5.27
2019-03-24T14:21:49.368Z,5.40
2019-03-24T14:24:21.425Z,6.67
2019-03-24T14:26:52.582Z,6.63
2019-03-24T14:29:27.163Z,4.53
2019-03-24T14:31:58.752Z,6.60
2019-03-24T14:34:30.038Z,9.83
2019-03-24T14:37:01.653Z,5.40
2019-03-24T14:39:33.438Z,7.73
2019-03-24T14:42:04.891Z,10.33
2019-03-24T14:44:36.647Z,7.00
2019-03-24T14:47:08.538Z,8.23
2019-03-24T14:49:40.067Z,6.20
2019-03-24T14:52:14.603Z,10.07
2019-03-24T14:54:46.439Z,5.47
2019-03-24T14:57:17.533Z,6.03
2019-03-24T14:59:49.318Z,7.20
2019-03-24T15:02:20.729Z,6.43
2019-03-24T15:04:51.913Z,8.17
2019-03-24T15:07:23.238Z,10.80
2019-03-24T15:09:54.358Z,5.67
2019-03-24T15:12:29.145Z,5.83
2019-03-24T15:15:00.371Z,6.83
2019-03-24T15:17:31.835Z,7.20
2019-03-24T15:20:03.455Z,6.90
2019-03-24T15:22:36.144Z,5.17
2019-03-24T15:25:08.007Z,6.40
2019-03-24T15:27:39.345Z,8.17
2019-03-24T15:30:14.128Z,6.57
2019-03-24T15:32:45.769Z,5.73
2019-03-24T15:35:17.383Z,5.43
2019-03-24T15:37:48.978Z,5.13
2019-03-24T15:40:20.258Z,5.63
2019-03-24T15:42:55.612Z,6.93
2019-03-24T15:45:26.972Z,7.20
2019-03-24T15:47:58.096Z,3.20
2019-03-24T15:50:29.406Z,3.20
2019-03-24T15:53:00.611Z,5.93
2019-03-24T15:55:31.638Z,5.63
2019-03-24T15:58:04.221Z,5.27
2019-03-24T16:00:46.755Z,4.07
2019-03-24T16:03:18.664Z,4.10
2019-03-24T16:05:50.110Z,3.93
2019-03-24T16:08:21.468Z,3.53
2019-03-24T16:10:52.569Z,4.23
2019-03-24T16:13:23.689Z,5.73
2019-03-24T16:15:54.960Z,5.80
2019-03-24T16:18:26.603Z,5.20
2019-03-24T16:20:57.474Z,6.03
2019-03-24T16:23:28.953Z,7.47
2019-03-24T16:26:00.977Z,5.80
2019-03-24T16:28:32.338Z,7.17
2019-03-24T16:31:03.915Z,5.53
2019-03-24T16:33:35.563Z,6.17
2019-03-24T16:36:07.059Z,7.60
2019-03-24T16:38:48.508Z,7.10
2019-03-24T16:41:12.376Z,7.23
2019-03-24T16:43:46.193Z,6.47
2019-03-24T16:46:17.628Z,7.43
2019-03-24T16:48:49.616Z,9.40
2019-03-24T16:51:23.342Z,7.70
2019-03-24T16:53:54.778Z,5.77
2019-03-24T16:56:26.044Z,6.70
2019-03-24T16:58:57.294Z,5.73
2019-03-24T17:01:28.548Z,6.67
2019-03-24T17:04:02.654Z,6.03
2019-03-24T17:06:33.991Z,7.30
2019-03-24T17:09:07.429Z,8.00
2019-03-24T17:11:38.596Z,8.10
2019-03-24T17:14:09.830Z,6.50
2019-03-24T17:16:41.037Z,7.63
2019-03-24T17:19:13.841Z,7.40
2019-03-24T17:21:50.018Z,8.20
2019-03-24T17:24:18.527Z,9.17
2019-03-24T17:26:49.955Z,10.93
2019-03-24T17:29:21.003Z,11.10
2019-03-24T17:31:52.205Z,9.77
2019-03-24T17:34:23.482Z,8.53
2019-03-24T17:36:54.937Z,6.53
2019-03-24T17:39:26.254Z,5.97
2019-03-24T17:41:57.135Z,6.40
2019-03-24T17:44:28.201Z,5.87
2019-03-24T17:46:59.374Z,7.13
2019-03-24T17:49:30.333Z,9.67
2019-03-24T17:52:01.289Z,9.17
2019-03-24T17:54:32.119Z,10.40
2019-03-24T17:57:03.054Z,9.80
2019-03-24T17:59:33.872Z,8.60
2019-03-24T18:02:14.164Z,9.40
2019-03-24T18:04:39.024Z,9.53
2019-03-24T18:07:09.892Z,6.43
2019-03-24T18:09:40.693Z,6.17
2019-03-24T18:12:11.666Z,7.27
2019-03-24T18:14:42.520Z,9.10
2019-03-24T18:17:13.347Z,6.10
2019-03-24T18:19:44.283Z,6.63
2019-03-24T18:22:15.178Z,6.83
2019-03-24T18:24:47.762Z,6.30
2019-03-24T18:27:18.698Z,7.30
2019-03-24T18:29:49.833Z,5.80
2019-03-24T18:32:23.060Z,9.73
2019-03-24T18:34:53.277Z,9.80
2019-03-24T18:37:28.091Z,7.47
2019-03-24T18:39:59.413Z,9.60
2019-03-24T18:42:30.522Z,9.90
2019-03-24T18:45:01.391Z,10.60
2019-03-24T18:47:32.423Z,13.20
2019-03-24T18:50:03.351Z,10.73
2019-03-24T18:52:34.420Z,10.37
2019-03-24T18:55:05.715Z,11.93
2019-03-24T18:57:36.723Z,9.17
2019-03-24T19:00:10.328Z,11.70
2019-03-24T19:02:42.825Z,12.47
2019-03-24T19:05:13.975Z,11.40
2019-03-24T19:07:45.126Z,12.03
2019-03-24T19:10:17.085Z,10.60
2019-03-24T19:12:48.172Z,7.50
2019-03-24T19:15:19.800Z,6.83
2019-03-24T19:17:50.656Z,5.73
2019-03-24T19:20:21.600Z,6.63
2019-03-24T19:22:52.564Z,6.27
2019-03-24T19:25:23.442Z,7.73
2019-03-24T19:27:54.395Z,7.53
2019-03-24T19:30:35.384Z,7.37
2019-03-24T19:33:06.388Z,10.33
2019-03-24T19:35:37.284Z,12.20
2019-03-24T19:38:08.575Z,9.93
2019-03-24T19:40:49.421Z,10.53
2019-03-24T19:43:19.084Z,10.60
2019-03-24T19:45:50.039Z,11.67
2019-03-24T19:48:20.867Z,11.20
2019-03-24T19:50:51.905Z,11.93
2019-03-24T19:53:22.859Z,9.13
2019-03-24T19:55:54.047Z,12.40
2019-03-24T19:58:25.670Z,8.70
2019-03-24T20:00:56.518Z,9.13
2019-03-24T20:03:27.801Z,9.27
2019-03-24T20:05:58.930Z,7.57
2019-03-24T20:08:29.807Z,7.60
2019-03-24T20:11:00.826Z,8.80
2019-03-24T20:13:33.302Z,8.50
2019-03-24T20:16:04.327Z,7.17
2019-03-24T20:18:35.302Z,8.17
2019-03-24T20:21:06.250Z,5.90
2019-03-24T20:23:37.110Z,9.63
2019-03-24T20:26:09.748Z,5.93
2019-03-24T20:28:40.788Z,8.70
2019-03-24T20:31:14.540Z,7.87
2019-03-24T20:33:48.263Z,11.33
2019-03-24T20:36:19.178Z,5.80
2019-03-24T20:38:50.466Z,8.40
2019-03-24T20:41:21.377Z,9.43
2019-03-24T20:43:52.382Z,9.07
2019-03-24T20:46:23.339Z,9.70
2019-03-24T20:48:54.311Z,9.77
2019-03-24T20:51:27.501Z,10.80
2019-03-24T20:53:58.518Z,9.53
2019-03-24T20:56:32.374Z,11.60
2019-03-24T20:59:03.545Z,6.10
2019-03-24T21:01:34.583Z,11.17
2019-03-24T21:04:05.566Z,11.20
2019-03-24T21:06:36.769Z,10.83
2019-03-24T21:09:09.062Z,11.80
2019-03-24T21:11:40.123Z,9.27
2019-03-24T21:14:12.719Z,7.53
2019-03-24T21:16:46.296Z,8.13
2019-03-24T21:19:19.445Z,9.87
2019-03-24T21:21:50.726Z,12.70
2019-03-24T21:24:23.097Z,13.90
2019-03-24T21:26:54.327Z,9.47
2019-03-24T21:29:25.383Z,10.40
2019-03-24T21:31:56.482Z,11.23
2019-03-24T21:34:27.407Z,10.10
2019-03-24T21:36:58.383Z,14.13
2019-03-24T21:39:29.547Z,12.57
2019-03-24T21:42:00.427Z,9.77
2019-03-24T21:44:31.403Z,10.13
2019-03-24T21:47:02.459Z,11.47
2019-03-24T21:49:33.514Z,11.07
2019-03-24T21:52:04.492Z,9.47
2019-03-24T21:54:35.528Z,10.33
2019-03-24T21:57:06.476Z,10.07
2019-03-24T21:59:37.454Z,11.17
2019-03-24T22:02:11.526Z,10.90
2019-03-24T22:04:42.626Z,11.50
2019-03-24T22:07:13.670Z,6.50
2019-03-24T22:09:44.601Z,8.17
2019-03-24T22:12:15.507Z,6.73
2019-03-24T22:14:46.573Z,11.07
2019-03-24T22:17:17.475Z,8.83
2019-03-24T22:19:48.387Z,5.87
2019-03-24T22:22:19.395Z,9.00
2019-03-24T22:24:50.325Z,9.87
2019-03-24T22:27:21.428Z,10.93
2019-03-24T22:29:52.316Z,7.13
2019-03-24T22:32:23.247Z,11.20
2019-03-24T22:34:54.145Z,8.67
2019-03-24T22:37:25.214Z,7.00
2019-03-24T22:39:56.451Z,15.57
2019-03-24T22:42:27.315Z,8.57
2019-03-24T22:44:58.255Z,11.90
2019-03-24T22:47:29.265Z,6.80
2019-03-24T22:50:04.611Z,12.27
2019-03-24T22:52:35.562Z,8.33
2019-03-24T22:55:07.089Z,14.47
2019-03-24T22:57:41.005Z,9.17
2019-03-24T23:00:18.353Z,10.50
2019-03-24T23:02:49.429Z,6.80
2019-03-24T23:05:20.449Z,10.97
2019-03-24T23:07:52.320Z,11.23
2019-03-24T23:10:23.245Z,12.20
2019-03-24T23:12:54.172Z,8.03
2019-03-24T23:15:25.384Z,7.33
2019-03-24T23:17:56.283Z,9.73
2019-03-24T23:20:27.871Z,9.23
2019-03-24T23:22:59.358Z,8.73
2019-03-24T23:25:30.298Z,8.07
2019-03-24T23:28:01.154Z,7.40
2019-03-24T23:30:35.074Z,7.90
2019-03-24T23:33:06.266Z,7.30
2019-03-24T23:35:37.379Z,9.20
2019-03-24T23:38:08.675Z,7.37
2019-03-24T23:40:39.531Z,7.50
2019-03-24T23:43:10.433Z,9.67
2019-03-24T23:45:41.374Z,5.93
2019-03-24T23:48:12.705Z,10.57
2019-03-24T23:50:44.145Z,8.50
2019-03-24T23:53:16.501Z,7.93
2019-03-24T23:55:47.381Z,11.97
2019-03-24T23:58:18.265Z,8.93
